DAL1478 KATL-KDTW
Flight info
| Callsign | DAL1478 |
|---|---|
| Flight time | 1h 43m |
| Altitude | 35000 |
| Route | PADGT2 SMTTH Q67 HNN SUBWY HTROD2 |
| Aircraft | A321/M-SDE3FGHIRWY/LB1 |
Departure
| Time | 2026-05-03 22:30 |
|---|---|
| Airport | Hartsfield Jackson Atlanta International Airport (KATL) |
Arrival
| Time | 2026-05-04 00:13 |
|---|---|
| Airport | Detroit Metropolitan Wayne County Airport (KDTW) |
| Time | Latitude | Longitude | Altitude | Speed | Heading |
|---|---|---|---|---|---|
| 2026-05-03 22:02 | 33.63875 | -84.43535 | 1006 ft | 0 kts | 268° |
| 2026-05-03 22:15 | 33.63875 | -84.43534 | 1006 ft | 1 kts | 268° |
| 2026-05-03 22:15 | 33.63875 | -84.43506 | 1006 ft | 3 kts | 268° |
| 2026-05-03 22:15 | 33.63875 | -84.43481 | 1006 ft | 4 kts | 290° |
| 2026-05-03 22:16 | 33.63863 | -84.43460 | 1006 ft | 4 kts | 317° |
| 2026-05-03 22:16 | 33.63853 | -84.43449 | 1006 ft | 0 kts | 317° |
| 2026-05-03 22:19 | 33.63853 | -84.43450 | 1006 ft | 1 kts | 317° |
| 2026-05-03 22:19 | 33.63870 | -84.43458 | 1006 ft | 4 kts | 346° |
| 2026-05-03 22:19 | 33.63911 | -84.43458 | 1006 ft | 7 kts | 1° |
| 2026-05-03 22:20 | 33.63959 | -84.43458 | 1006 ft | 7 kts | 0° |
| 2026-05-03 22:20 | 33.64007 | -84.43454 | 1006 ft | 9 kts | 14° |
| 2026-05-03 22:20 | 33.64064 | -84.43396 | 1006 ft | 10 kts | 31° |
| 2026-05-03 22:20 | 33.64132 | -84.43393 | 1006 ft | 9 kts | 0° |
| 2026-05-03 22:21 | 33.64190 | -84.43393 | 1006 ft | 7 kts | 0° |
| 2026-05-03 22:21 | 33.64231 | -84.43392 | 1006 ft | 5 kts | 0° |
| 2026-05-03 22:21 | 33.64275 | -84.43392 | 1006 ft | 8 kts | 360° |
| 2026-05-03 22:21 | 33.64316 | -84.43393 | 1006 ft | 4 kts | 359° |
| 2026-05-03 22:22 | 33.64334 | -84.43393 | 1006 ft | 0 kts | 359° |
| 2026-05-03 22:22 | 33.64340 | -84.43393 | 1006 ft | 2 kts | 359° |
| 2026-05-03 22:22 | 33.64358 | -84.43393 | 1006 ft | 3 kts | 360° |
| 2026-05-03 22:22 | 33.64410 | -84.43393 | 1006 ft | 11 kts | 3° |
| 2026-05-03 22:23 | 33.64459 | -84.43324 | 1006 ft | 12 kts | 83° |
| 2026-05-03 22:23 | 33.64460 | -84.43221 | 1007 ft | 12 kts | 90° |
| 2026-05-03 22:23 | 33.64459 | -84.43126 | 1007 ft | 12 kts | 90° |
| 2026-05-03 22:23 | 33.64459 | -84.43015 | 1006 ft | 14 kts | 90° |
| 2026-05-03 22:24 | 33.64460 | -84.42888 | 1006 ft | 17 kts | 90° |
| 2026-05-03 22:24 | 33.64464 | -84.42749 | 1006 ft | 16 kts | 82° |
| 2026-05-03 22:24 | 33.64468 | -84.42616 | 1006 ft | 16 kts | 89° |
| 2026-05-03 22:24 | 33.64469 | -84.42483 | 1006 ft | 16 kts | 90° |
| 2026-05-03 22:25 | 33.64469 | -84.42351 | 1006 ft | 15 kts | 90° |
| 2026-05-03 22:25 | 33.64485 | -84.42230 | 1006 ft | 16 kts | 62° |
| 2026-05-03 22:25 | 33.64541 | -84.42094 | 1006 ft | 19 kts | 83° |
| 2026-05-03 22:25 | 33.64542 | -84.41929 | 1006 ft | 21 kts | 90° |
| 2026-05-03 22:26 | 33.64542 | -84.41755 | 1006 ft | 20 kts | 90° |
| 2026-05-03 22:26 | 33.64542 | -84.41594 | 1007 ft | 19 kts | 90° |
| 2026-05-03 22:26 | 33.64542 | -84.41441 | 1007 ft | 18 kts | 90° |
| 2026-05-03 22:26 | 33.64542 | -84.41295 | 1007 ft | 18 kts | 90° |
| 2026-05-03 22:27 | 33.64542 | -84.41147 | 1007 ft | 18 kts | 90° |
| 2026-05-03 22:27 | 33.64543 | -84.40998 | 1006 ft | 19 kts | 90° |
| 2026-05-03 22:27 | 33.64544 | -84.40840 | 1006 ft | 18 kts | 83° |
| 2026-05-03 22:27 | 33.64570 | -84.40719 | 1006 ft | 13 kts | 89° |
| 2026-05-03 22:28 | 33.64570 | -84.40622 | 1005 ft | 6 kts | 89° |
| 2026-05-03 22:28 | 33.64581 | -84.40584 | 1005 ft | 5 kts | 52° |
| 2026-05-03 22:28 | 33.64630 | -84.40568 | 1004 ft | 10 kts | 0° |
| 2026-05-03 22:28 | 33.64680 | -84.40592 | 1004 ft | 7 kts | 284° |
| 2026-05-03 22:29 | 33.64680 | -84.40620 | 1004 ft | 0 kts | 270° |
| 2026-05-03 22:29 | 33.64680 | -84.40741 | 1004 ft | 43 kts | 270° |
| 2026-05-03 22:29 | 33.64680 | -84.41379 | 1009 ft | 107 kts | 270° |
| 2026-05-03 22:30 | 33.64680 | -84.42462 | 1007 ft | 154 kts | 270° |
| 2026-05-03 22:30 | 33.64674 | -84.43818 | 1443 ft | 161 kts | 270° |
| 2026-05-03 22:30 | 33.64647 | -84.45159 | 2182 ft | 160 kts | 269° |
| 2026-05-03 22:30 | 33.64856 | -84.46491 | 2542 ft | 172 kts | 295° |
| 2026-05-03 22:31 | 33.65386 | -84.47878 | 2761 ft | 194 kts | 295° |
| 2026-05-03 22:31 | 33.65979 | -84.49433 | 2925 ft | 216 kts | 295° |
| 2026-05-03 22:31 | 33.66641 | -84.51168 | 3070 ft | 242 kts | 295° |
| 2026-05-03 22:31 | 33.67357 | -84.53046 | 3661 ft | 251 kts | 295° |
| 2026-05-03 22:32 | 33.68087 | -84.54968 | 4434 ft | 256 kts | 294° |
| 2026-05-03 22:32 | 33.68914 | -84.56873 | 5181 ft | 260 kts | 309° |
| 2026-05-03 22:32 | 33.70392 | -84.58085 | 5943 ft | 264 kts | 343° |
| 2026-05-03 22:32 | 33.72214 | -84.58314 | 6703 ft | 267 kts | 358° |
| 2026-05-03 22:33 | 33.74086 | -84.58311 | 7422 ft | 271 kts | 359° |
| 2026-05-03 22:33 | 33.75978 | -84.58251 | 8136 ft | 274 kts | 360° |
| 2026-05-03 22:33 | 33.77780 | -84.58184 | 8788 ft | 278 kts | 359° |
| 2026-05-03 22:33 | 33.79721 | -84.58125 | 9490 ft | 281 kts | 359° |
| 2026-05-03 22:34 | 33.81662 | -84.57876 | 10160 ft | 287 kts | 11° |
| 2026-05-03 22:34 | 33.83678 | -84.57150 | 10499 ft | 305 kts | 14° |
| 2026-05-03 22:34 | 33.85776 | -84.56375 | 10610 ft | 327 kts | 14° |
| 2026-05-03 22:34 | 33.88018 | -84.55551 | 10866 ft | 343 kts | 14° |
| 2026-05-03 22:35 | 33.90318 | -84.54702 | 11400 ft | 348 kts | 14° |
| 2026-05-03 22:35 | 33.92649 | -84.53837 | 12012 ft | 352 kts | 14° |
| 2026-05-03 22:35 | 33.94923 | -84.52996 | 12616 ft | 356 kts | 14° |
| 2026-05-03 22:35 | 33.97368 | -84.52098 | 13254 ft | 360 kts | 14° |
| 2026-05-03 22:36 | 33.99745 | -84.51226 | 13898 ft | 364 kts | 14° |
| 2026-05-03 22:36 | 34.02178 | -84.50329 | 14440 ft | 368 kts | 14° |
| 2026-05-03 22:36 | 34.04637 | -84.49418 | 14986 ft | 371 kts | 14° |
| 2026-05-03 22:36 | 34.07113 | -84.48499 | 15522 ft | 375 kts | 14° |
| 2026-05-03 22:37 | 34.09624 | -84.47566 | 16067 ft | 379 kts | 14° |
| 2026-05-03 22:37 | 34.12148 | -84.46630 | 16620 ft | 381 kts | 13° |
| 2026-05-03 22:37 | 34.14698 | -84.45687 | 17155 ft | 385 kts | 13° |
| 2026-05-03 22:37 | 34.17268 | -84.44735 | 17671 ft | 388 kts | 13° |
| 2026-05-03 22:38 | 34.19859 | -84.43776 | 18189 ft | 391 kts | 13° |
| 2026-05-03 22:38 | 34.22440 | -84.42823 | 18655 ft | 395 kts | 13° |
| 2026-05-03 22:38 | 34.25109 | -84.41834 | 19096 ft | 398 kts | 13° |
| 2026-05-03 22:38 | 34.26866 | -84.41181 | 19398 ft | 400 kts | 13° |
| 2026-05-03 22:39 | 34.30415 | -84.39945 | 19967 ft | 401 kts | 8° |
| 2026-05-03 22:39 | 34.33173 | -84.39277 | 20402 ft | 403 kts | 7° |
| 2026-05-03 22:39 | 34.35914 | -84.38619 | 20856 ft | 405 kts | 7° |
| 2026-05-03 22:39 | 34.38686 | -84.37955 | 21312 ft | 407 kts | 7° |
| 2026-05-03 22:40 | 34.41472 | -84.37285 | 21731 ft | 410 kts | 7° |
| 2026-05-03 22:40 | 34.44283 | -84.36610 | 22162 ft | 413 kts | 7° |
| 2026-05-03 22:40 | 34.47105 | -84.35934 | 22567 ft | 415 kts | 7° |
| 2026-05-03 22:40 | 34.49952 | -84.35249 | 22985 ft | 418 kts | 7° |
| 2026-05-03 22:41 | 34.52814 | -84.34558 | 23404 ft | 421 kts | 7° |
| 2026-05-03 22:41 | 34.55656 | -84.33872 | 23778 ft | 424 kts | 7° |
| 2026-05-03 22:41 | 34.58557 | -84.33174 | 24116 ft | 426 kts | 7° |
| 2026-05-03 22:41 | 34.61469 | -84.32470 | 24474 ft | 428 kts | 7° |
| 2026-05-03 22:42 | 34.63444 | -84.31991 | 24706 ft | 429 kts | 7° |
| 2026-05-03 22:42 | 34.67335 | -84.31044 | 25165 ft | 432 kts | 7° |
| 2026-05-03 22:42 | 34.70290 | -84.30325 | 25492 ft | 434 kts | 7° |
| 2026-05-03 22:42 | 34.73255 | -84.29604 | 25827 ft | 436 kts | 7° |
| 2026-05-03 22:43 | 34.76240 | -84.28878 | 26126 ft | 438 kts | 7° |
| 2026-05-03 22:43 | 34.79229 | -84.28148 | 26425 ft | 440 kts | 7° |
| 2026-05-03 22:43 | 34.82245 | -84.27412 | 26710 ft | 443 kts | 7° |
| 2026-05-03 22:43 | 34.85271 | -84.26672 | 27008 ft | 445 kts | 7° |
| 2026-05-03 22:44 | 34.88275 | -84.25940 | 27347 ft | 447 kts | 6° |
| 2026-05-03 22:44 | 34.91330 | -84.25199 | 27660 ft | 449 kts | 6° |
| 2026-05-03 22:44 | 34.94398 | -84.24455 | 27960 ft | 451 kts | 6° |
| 2026-05-03 22:44 | 34.97480 | -84.23706 | 28242 ft | 453 kts | 6° |
| 2026-05-03 22:45 | 35.00575 | -84.22948 | 28528 ft | 455 kts | 6° |
| 2026-05-03 22:45 | 35.03684 | -84.22187 | 28813 ft | 457 kts | 6° |
| 2026-05-03 22:45 | 35.06805 | -84.21425 | 29084 ft | 459 kts | 6° |
| 2026-05-03 22:45 | 35.09936 | -84.20657 | 29356 ft | 461 kts | 6° |
| 2026-05-03 22:46 | 35.13086 | -84.19883 | 29669 ft | 462 kts | 6° |
| 2026-05-03 22:46 | 35.16242 | -84.19108 | 29956 ft | 464 kts | 6° |
| 2026-05-03 22:46 | 35.19409 | -84.18331 | 30293 ft | 463 kts | 6° |
| 2026-05-03 22:46 | 35.22523 | -84.17567 | 30607 ft | 463 kts | 6° |
| 2026-05-03 22:47 | 35.25673 | -84.16792 | 30945 ft | 462 kts | 6° |
| 2026-05-03 22:47 | 35.28819 | -84.16020 | 31282 ft | 461 kts | 6° |
| 2026-05-03 22:47 | 35.31963 | -84.15248 | 31619 ft | 460 kts | 6° |
| 2026-05-03 22:47 | 35.35093 | -84.14477 | 31957 ft | 460 kts | 6° |
| 2026-05-03 22:48 | 35.38224 | -84.13703 | 32339 ft | 458 kts | 5° |
| 2026-05-03 22:48 | 35.40289 | -84.13191 | 32585 ft | 457 kts | 5° |
| 2026-05-03 22:48 | 35.44454 | -84.12159 | 33063 ft | 456 kts | 5° |
| 2026-05-03 22:48 | 35.47560 | -84.11389 | 33397 ft | 455 kts | 5° |
| 2026-05-03 22:49 | 35.50658 | -84.10622 | 33734 ft | 454 kts | 5° |
| 2026-05-03 22:49 | 35.53710 | -84.09866 | 34052 ft | 453 kts | 5° |
| 2026-05-03 22:49 | 35.56803 | -84.09103 | 34327 ft | 453 kts | 5° |
| 2026-05-03 22:49 | 35.59894 | -84.08343 | 34571 ft | 453 kts | 5° |
| 2026-05-03 22:50 | 35.62988 | -84.07583 | 34834 ft | 453 kts | 4° |
| 2026-05-03 22:50 | 35.66086 | -84.06818 | 35047 ft | 454 kts | 4° |
| 2026-05-03 22:50 | 35.68136 | -84.06310 | 35097 ft | 453 kts | 4° |
| 2026-05-03 22:51 | 35.75326 | -84.04507 | 35121 ft | 450 kts | 4° |
| 2026-05-03 22:51 | 35.81459 | -84.02972 | 35122 ft | 450 kts | 4° |
| 2026-05-03 22:52 | 35.87594 | -84.01439 | 35108 ft | 450 kts | 4° |
| 2026-05-03 22:52 | 35.93527 | -83.98881 | 35116 ft | 465 kts | 22° |
| 2026-05-03 22:53 | 35.98200 | -83.95553 | 35113 ft | 467 kts | 24° |
| 2026-05-03 22:53 | 36.04758 | -83.90859 | 35104 ft | 466 kts | 24° |
| 2026-05-03 22:54 | 36.09431 | -83.87518 | 35116 ft | 467 kts | 23° |
| 2026-05-03 22:54 | 36.15056 | -83.83496 | 35123 ft | 467 kts | 24° |
| 2026-05-03 22:55 | 36.20678 | -83.79469 | 35122 ft | 467 kts | 24° |
| 2026-05-03 22:55 | 36.26297 | -83.75434 | 35117 ft | 467 kts | 24° |
| 2026-05-03 22:56 | 36.31914 | -83.71396 | 35114 ft | 466 kts | 24° |
| 2026-05-03 22:56 | 36.37488 | -83.67389 | 35145 ft | 466 kts | 23° |
| 2026-05-03 22:57 | 36.43090 | -83.63351 | 35127 ft | 465 kts | 23° |
| 2026-05-03 22:57 | 36.48684 | -83.59301 | 35116 ft | 465 kts | 23° |
| 2026-05-03 22:58 | 36.54268 | -83.55256 | 35111 ft | 465 kts | 23° |
| 2026-05-03 22:58 | 36.59861 | -83.51197 | 35129 ft | 466 kts | 22° |
| 2026-05-03 22:59 | 36.65421 | -83.47159 | 35105 ft | 466 kts | 23° |
| 2026-05-03 22:59 | 36.71061 | -83.43052 | 35094 ft | 467 kts | 23° |
| 2026-05-03 23:00 | 36.76630 | -83.38993 | 35089 ft | 467 kts | 23° |
| 2026-05-03 23:00 | 36.82240 | -83.34904 | 35119 ft | 465 kts | 22° |
| 2026-05-03 23:01 | 36.87799 | -83.30712 | 35118 ft | 469 kts | 24° |
| 2026-05-03 23:01 | 36.93328 | -83.26555 | 35119 ft | 468 kts | 22° |
| 2026-05-03 23:02 | 36.98974 | -83.22532 | 35119 ft | 467 kts | 22° |
| 2026-05-03 23:02 | 37.04600 | -83.18462 | 35151 ft | 468 kts | 22° |
| 2026-05-03 23:03 | 37.10194 | -83.14316 | 35101 ft | 467 kts | 22° |
| 2026-05-03 23:03 | 37.15780 | -83.10152 | 35088 ft | 468 kts | 22° |
| 2026-05-03 23:04 | 37.21340 | -83.06021 | 35090 ft | 468 kts | 22° |
| 2026-05-03 23:04 | 37.26963 | -83.01878 | 35085 ft | 468 kts | 21° |
| 2026-05-03 23:05 | 37.32689 | -82.98059 | 35107 ft | 465 kts | 19° |
| 2026-05-03 23:05 | 37.38454 | -82.94404 | 35100 ft | 464 kts | 18° |
| 2026-05-03 23:06 | 37.44165 | -82.90730 | 35092 ft | 464 kts | 19° |
| 2026-05-03 23:06 | 37.49892 | -82.86951 | 35086 ft | 465 kts | 19° |
| 2026-05-03 23:07 | 37.55608 | -82.83156 | 35118 ft | 464 kts | 19° |
| 2026-05-03 23:07 | 37.61322 | -82.79364 | 35104 ft | 463 kts | 19° |
| 2026-05-03 23:08 | 37.67032 | -82.75591 | 35083 ft | 464 kts | 19° |
| 2026-05-03 23:08 | 37.72721 | -82.71837 | 35071 ft | 465 kts | 19° |
| 2026-05-03 23:09 | 37.78448 | -82.68046 | 35096 ft | 465 kts | 19° |
| 2026-05-03 23:09 | 37.84164 | -82.64238 | 35093 ft | 465 kts | 19° |
| 2026-05-03 23:10 | 37.89891 | -82.60421 | 35090 ft | 465 kts | 19° |
| 2026-05-03 23:10 | 37.95582 | -82.56634 | 35084 ft | 465 kts | 19° |
| 2026-05-03 23:11 | 38.01284 | -82.52821 | 35085 ft | 462 kts | 18° |
| 2026-05-03 23:11 | 38.06972 | -82.49008 | 35081 ft | 462 kts | 18° |
| 2026-05-03 23:12 | 38.12654 | -82.45198 | 35083 ft | 462 kts | 18° |
| 2026-05-03 23:12 | 38.18337 | -82.41377 | 35082 ft | 462 kts | 18° |
| 2026-05-03 23:13 | 38.23973 | -82.37579 | 35056 ft | 462 kts | 19° |
| 2026-05-03 23:13 | 38.29629 | -82.33759 | 35058 ft | 462 kts | 19° |
| 2026-05-03 23:14 | 38.35319 | -82.29919 | 35063 ft | 463 kts | 19° |
| 2026-05-03 23:14 | 38.41010 | -82.26069 | 35108 ft | 463 kts | 19° |
| 2026-05-03 23:15 | 38.46658 | -82.22228 | 35098 ft | 463 kts | 19° |
| 2026-05-03 23:15 | 38.52345 | -82.18362 | 35090 ft | 463 kts | 18° |
| 2026-05-03 23:16 | 38.58024 | -82.14508 | 35085 ft | 462 kts | 19° |
| 2026-05-03 23:16 | 38.63698 | -82.10639 | 35117 ft | 462 kts | 18° |
| 2026-05-03 23:17 | 38.69367 | -82.06761 | 35099 ft | 462 kts | 18° |
| 2026-05-03 23:17 | 38.75167 | -82.03910 | 35087 ft | 438 kts | 1° |
| 2026-05-03 23:17 | 38.78149 | -82.03418 | 35080 ft | 426 kts | 352° |
| 2026-05-03 23:18 | 38.81070 | -82.03507 | 35074 ft | 415 kts | 344° |
| 2026-05-03 23:18 | 38.86780 | -82.04410 | 35101 ft | 414 kts | 343° |
| 2026-05-03 23:19 | 38.92498 | -82.05310 | 35082 ft | 414 kts | 343° |
| 2026-05-03 23:19 | 38.98179 | -82.06198 | 35073 ft | 414 kts | 343° |
| 2026-05-03 23:20 | 39.03898 | -82.07094 | 35064 ft | 414 kts | 343° |
| 2026-05-03 23:20 | 39.09619 | -82.07995 | 35092 ft | 414 kts | 343° |
| 2026-05-03 23:21 | 39.15338 | -82.08910 | 35078 ft | 414 kts | 343° |
| 2026-05-03 23:21 | 39.21014 | -82.09812 | 35070 ft | 414 kts | 343° |
| 2026-05-03 23:22 | 39.29599 | -82.11174 | 35049 ft | 414 kts | 343° |
| 2026-05-03 23:22 | 39.35325 | -82.12081 | 35051 ft | 414 kts | 344° |
| 2026-05-03 23:23 | 39.41035 | -82.12996 | 35057 ft | 413 kts | 344° |
| 2026-05-03 23:23 | 39.46746 | -82.13921 | 35056 ft | 414 kts | 344° |
| 2026-05-03 23:24 | 39.52424 | -82.14837 | 35058 ft | 414 kts | 344° |
| 2026-05-03 23:24 | 39.58146 | -82.15747 | 35086 ft | 414 kts | 344° |
| 2026-05-03 23:25 | 39.63863 | -82.16660 | 35071 ft | 414 kts | 344° |
| 2026-05-03 23:25 | 39.69576 | -82.17578 | 35064 ft | 414 kts | 344° |
| 2026-05-03 23:26 | 39.75291 | -82.18501 | 35060 ft | 414 kts | 344° |
| 2026-05-03 23:26 | 39.80965 | -82.19411 | 35052 ft | 413 kts | 344° |
| 2026-05-03 23:27 | 39.86671 | -82.20331 | 35038 ft | 413 kts | 344° |
| 2026-05-03 23:27 | 39.92375 | -82.21260 | 35035 ft | 413 kts | 344° |
| 2026-05-03 23:28 | 39.98087 | -82.22199 | 35027 ft | 413 kts | 344° |
| 2026-05-03 23:28 | 40.03762 | -82.23136 | 35053 ft | 414 kts | 345° |
| 2026-05-03 23:29 | 40.09487 | -82.24055 | 35053 ft | 415 kts | 345° |
| 2026-05-03 23:29 | 40.15220 | -82.24986 | 34892 ft | 415 kts | 344° |
| 2026-05-03 23:30 | 40.18083 | -82.25453 | 34653 ft | 414 kts | 344° |
| 2026-05-03 23:30 | 40.20939 | -82.25922 | 34418 ft | 412 kts | 344° |
| 2026-05-03 23:30 | 40.23781 | -82.26386 | 34221 ft | 412 kts | 345° |
| 2026-05-03 23:30 | 40.26594 | -82.26844 | 33984 ft | 412 kts | 345° |
| 2026-05-03 23:31 | 40.29436 | -82.27310 | 33704 ft | 412 kts | 344° |
| 2026-05-03 23:31 | 40.32267 | -82.27777 | 33425 ft | 412 kts | 344° |
| 2026-05-03 23:31 | 40.35116 | -82.28246 | 33151 ft | 413 kts | 345° |
| 2026-05-03 23:31 | 40.37972 | -82.28715 | 32876 ft | 414 kts | 345° |
| 2026-05-03 23:32 | 40.40856 | -82.29189 | 32599 ft | 415 kts | 345° |
| 2026-05-03 23:32 | 40.43695 | -82.29658 | 32338 ft | 416 kts | 345° |
| 2026-05-03 23:32 | 40.46574 | -82.30133 | 32081 ft | 416 kts | 345° |
| 2026-05-03 23:32 | 40.49421 | -82.30715 | 31809 ft | 411 kts | 339° |
| 2026-05-03 23:33 | 40.52112 | -82.31753 | 31557 ft | 407 kts | 335° |
| 2026-05-03 23:33 | 40.54801 | -82.32876 | 31301 ft | 405 kts | 335° |
| 2026-05-03 23:33 | 40.57482 | -82.33998 | 31046 ft | 404 kts | 335° |
| 2026-05-03 23:33 | 40.60155 | -82.35115 | 30793 ft | 402 kts | 334° |
| 2026-05-03 23:34 | 40.62816 | -82.36226 | 30543 ft | 401 kts | 334° |
| 2026-05-03 23:34 | 40.65467 | -82.37330 | 30299 ft | 399 kts | 334° |
| 2026-05-03 23:34 | 40.68115 | -82.38436 | 30092 ft | 399 kts | 335° |
| 2026-05-03 23:34 | 40.70756 | -82.39543 | 29985 ft | 398 kts | 335° |
| 2026-05-03 23:35 | 40.76003 | -82.41745 | 30012 ft | 399 kts | 335° |
| 2026-05-03 23:35 | 40.81297 | -82.43962 | 30011 ft | 399 kts | 335° |
| 2026-05-03 23:36 | 40.86584 | -82.46183 | 29950 ft | 400 kts | 335° |
| 2026-05-03 23:36 | 40.89231 | -82.47300 | 29675 ft | 398 kts | 335° |
| 2026-05-03 23:36 | 40.91860 | -82.48407 | 29385 ft | 396 kts | 335° |
| 2026-05-03 23:37 | 40.94483 | -82.49512 | 29095 ft | 394 kts | 335° |
| 2026-05-03 23:37 | 40.97089 | -82.50609 | 28806 ft | 393 kts | 335° |
| 2026-05-03 23:37 | 40.99655 | -82.51687 | 28530 ft | 391 kts | 335° |
| 2026-05-03 23:37 | 41.02242 | -82.52775 | 28103 ft | 389 kts | 335° |
| 2026-05-03 23:38 | 41.04814 | -82.53859 | 27578 ft | 386 kts | 336° |
| 2026-05-03 23:38 | 41.07360 | -82.54934 | 27064 ft | 383 kts | 336° |
| 2026-05-03 23:38 | 41.09880 | -82.56014 | 26673 ft | 379 kts | 335° |
| 2026-05-03 23:38 | 41.12380 | -82.57117 | 26348 ft | 378 kts | 336° |
| 2026-05-03 23:39 | 41.14869 | -82.58230 | 25991 ft | 377 kts | 336° |
| 2026-05-03 23:39 | 41.17349 | -82.59343 | 25645 ft | 376 kts | 336° |
| 2026-05-03 23:39 | 41.19788 | -82.60437 | 25299 ft | 374 kts | 336° |
| 2026-05-03 23:39 | 41.22249 | -82.61539 | 24955 ft | 372 kts | 336° |
| 2026-05-03 23:40 | 41.24697 | -82.62634 | 24615 ft | 371 kts | 336° |
| 2026-05-03 23:40 | 41.27136 | -82.63724 | 24277 ft | 369 kts | 336° |
| 2026-05-03 23:40 | 41.29519 | -82.64921 | 23931 ft | 364 kts | 330° |
| 2026-05-03 23:40 | 41.31718 | -82.66543 | 23604 ft | 360 kts | 326° |
| 2026-05-03 23:41 | 41.33878 | -82.68211 | 23242 ft | 359 kts | 326° |
| 2026-05-03 23:41 | 41.36042 | -82.69877 | 22903 ft | 358 kts | 326° |
| 2026-05-03 23:41 | 41.38193 | -82.71529 | 22567 ft | 357 kts | 326° |
| 2026-05-03 23:41 | 41.40343 | -82.73180 | 22242 ft | 356 kts | 327° |
| 2026-05-03 23:42 | 41.42456 | -82.74803 | 21906 ft | 354 kts | 326° |
| 2026-05-03 23:42 | 41.44584 | -82.76443 | 21588 ft | 353 kts | 326° |
| 2026-05-03 23:42 | 41.46705 | -82.78081 | 21245 ft | 352 kts | 326° |
| 2026-05-03 23:42 | 41.48818 | -82.79715 | 20924 ft | 350 kts | 327° |
| 2026-05-03 23:43 | 41.50917 | -82.81340 | 20605 ft | 348 kts | 327° |
| 2026-05-03 23:43 | 41.53008 | -82.82959 | 20285 ft | 347 kts | 327° |
| 2026-05-03 23:43 | 41.55092 | -82.84574 | 19967 ft | 346 kts | 327° |
| 2026-05-03 23:43 | 41.57167 | -82.86184 | 19648 ft | 344 kts | 327° |
| 2026-05-03 23:44 | 41.59208 | -82.87769 | 19339 ft | 343 kts | 327° |
| 2026-05-03 23:44 | 41.61266 | -82.89370 | 19024 ft | 342 kts | 327° |
| 2026-05-03 23:44 | 41.63313 | -82.90961 | 18707 ft | 340 kts | 327° |
| 2026-05-03 23:44 | 41.65356 | -82.92547 | 18398 ft | 339 kts | 327° |
| 2026-05-03 23:45 | 41.67360 | -82.94196 | 18062 ft | 336 kts | 321° |
| 2026-05-03 23:45 | 41.69141 | -82.96193 | 17840 ft | 334 kts | 317° |
| 2026-05-03 23:45 | 41.70893 | -82.98219 | 17557 ft | 333 kts | 317° |
| 2026-05-03 23:45 | 41.72646 | -83.00234 | 17233 ft | 332 kts | 317° |
| 2026-05-03 23:46 | 41.74399 | -83.02243 | 16932 ft | 331 kts | 317° |
| 2026-05-03 23:46 | 41.76120 | -83.04216 | 16630 ft | 329 kts | 317° |
| 2026-05-03 23:46 | 41.77855 | -83.06212 | 16341 ft | 328 kts | 317° |
| 2026-05-03 23:46 | 41.79582 | -83.08208 | 16026 ft | 328 kts | 316° |
| 2026-05-03 23:47 | 41.81308 | -83.10208 | 15713 ft | 327 kts | 316° |
| 2026-05-03 23:47 | 41.83026 | -83.12197 | 15418 ft | 326 kts | 316° |
| 2026-05-03 23:47 | 41.84743 | -83.14184 | 15121 ft | 325 kts | 316° |
| 2026-05-03 23:47 | 41.86455 | -83.16154 | 14761 ft | 324 kts | 317° |
| 2026-05-03 23:48 | 41.88175 | -83.18085 | 14371 ft | 322 kts | 317° |
| 2026-05-03 23:48 | 41.89890 | -83.19988 | 13989 ft | 319 kts | 317° |
| 2026-05-03 23:48 | 41.91601 | -83.21879 | 13588 ft | 317 kts | 317° |
| 2026-05-03 23:48 | 41.93271 | -83.23729 | 13198 ft | 316 kts | 317° |
| 2026-05-03 23:49 | 41.94987 | -83.25645 | 12819 ft | 314 kts | 317° |
| 2026-05-03 23:49 | 41.96629 | -83.27484 | 12442 ft | 311 kts | 317° |
| 2026-05-03 23:49 | 41.98262 | -83.29309 | 12284 ft | 300 kts | 316° |
| 2026-05-03 23:49 | 41.99833 | -83.31067 | 12158 ft | 288 kts | 317° |
| 2026-05-03 23:50 | 42.01529 | -83.32431 | 12031 ft | 285 kts | 336° |
| 2026-05-03 23:50 | 42.02807 | -83.32843 | 11856 ft | 287 kts | 350° |
| 2026-05-03 23:50 | 42.05466 | -83.32273 | 11342 ft | 298 kts | 20° |
| 2026-05-03 23:50 | 42.07283 | -83.30880 | 10930 ft | 301 kts | 26° |
| 2026-05-03 23:51 | 42.09077 | -83.29443 | 10559 ft | 300 kts | 25° |
| 2026-05-03 23:51 | 42.10847 | -83.28039 | 10195 ft | 298 kts | 25° |
| 2026-05-03 23:51 | 42.12632 | -83.26637 | 9830 ft | 297 kts | 25° |
| 2026-05-03 23:51 | 42.14417 | -83.25243 | 9428 ft | 295 kts | 25° |
| 2026-05-03 23:52 | 42.16162 | -83.23879 | 9011 ft | 287 kts | 25° |
| 2026-05-03 23:52 | 42.17867 | -83.22541 | 8658 ft | 278 kts | 25° |
| 2026-05-03 23:52 | 42.19507 | -83.21251 | 8314 ft | 269 kts | 25° |
| 2026-05-03 23:52 | 42.21096 | -83.20005 | 8009 ft | 259 kts | 25° |
| 2026-05-03 23:53 | 42.22632 | -83.18803 | 7692 ft | 253 kts | 25° |
| 2026-05-03 23:53 | 42.24153 | -83.17633 | 7362 ft | 250 kts | 24° |
| 2026-05-03 23:53 | 42.25649 | -83.16530 | 7060 ft | 247 kts | 23° |
| 2026-05-03 23:53 | 42.27145 | -83.15444 | 6767 ft | 242 kts | 24° |
| 2026-05-03 23:54 | 42.28615 | -83.14378 | 6501 ft | 237 kts | 24° |
| 2026-05-03 23:54 | 42.30032 | -83.13343 | 6236 ft | 227 kts | 24° |
| 2026-05-03 23:54 | 42.31404 | -83.12338 | 5894 ft | 222 kts | 24° |
| 2026-05-03 23:54 | 42.32753 | -83.11346 | 5554 ft | 219 kts | 24° |
| 2026-05-03 23:55 | 42.34106 | -83.10433 | 5216 ft | 214 kts | 11° |
| 2026-05-03 23:55 | 42.35502 | -83.10428 | 4912 ft | 193 kts | 330° |
| 2026-05-03 23:55 | 42.36482 | -83.11466 | 4664 ft | 174 kts | 296° |
| 2026-05-03 23:55 | 42.37058 | -83.12846 | 4454 ft | 170 kts | 289° |
| 2026-05-03 23:56 | 42.37567 | -83.14288 | 4278 ft | 169 kts | 288° |
| 2026-05-03 23:56 | 42.38064 | -83.15729 | 4105 ft | 169 kts | 287° |
| 2026-05-03 23:56 | 42.38432 | -83.17229 | 4019 ft | 162 kts | 270° |
| 2026-05-03 23:56 | 42.38417 | -83.18714 | 3990 ft | 160 kts | 263° |
| 2026-05-03 23:57 | 42.38207 | -83.20184 | 3991 ft | 159 kts | 253° |
| 2026-05-03 23:57 | 42.37708 | -83.21507 | 3991 ft | 160 kts | 232° |
| 2026-05-03 23:57 | 42.36818 | -83.22435 | 3921 ft | 165 kts | 214° |
| 2026-05-03 23:57 | 42.35806 | -83.23181 | 3765 ft | 166 kts | 213° |
| 2026-05-03 23:58 | 42.34796 | -83.23925 | 3560 ft | 165 kts | 213° |
| 2026-05-03 23:58 | 42.33795 | -83.24665 | 3349 ft | 164 kts | 213° |
| 2026-05-03 23:58 | 42.32812 | -83.25392 | 3137 ft | 162 kts | 212° |
| 2026-05-03 23:58 | 42.31825 | -83.26123 | 2915 ft | 162 kts | 213° |
| 2026-05-03 23:59 | 42.30837 | -83.26854 | 2698 ft | 162 kts | 213° |
| 2026-05-03 23:59 | 42.29859 | -83.27576 | 2482 ft | 156 kts | 211° |
| 2026-05-03 23:59 | 42.28965 | -83.28236 | 2290 ft | 140 kts | 212° |
| 2026-05-03 23:59 | 42.28130 | -83.28854 | 2099 ft | 136 kts | 213° |
| 2026-05-04 00:00 | 42.27309 | -83.29461 | 1916 ft | 134 kts | 212° |
| 2026-05-04 00:00 | 42.26488 | -83.30068 | 1729 ft | 136 kts | 211° |
| 2026-05-04 00:00 | 42.25673 | -83.30670 | 1518 ft | 132 kts | 211° |
| 2026-05-04 00:00 | 42.24864 | -83.31268 | 1341 ft | 136 kts | 210° |
| 2026-05-04 00:01 | 42.24055 | -83.31866 | 1164 ft | 136 kts | 208° |
| 2026-05-04 00:01 | 42.23239 | -83.32467 | 980 ft | 132 kts | 210° |
| 2026-05-04 00:01 | 42.22415 | -83.33074 | 796 ft | 138 kts | 209° |
| 2026-05-04 00:01 | 42.21587 | -83.33686 | 666 ft | 129 kts | 209° |
| 2026-05-04 00:02 | 42.20888 | -83.34196 | 672 ft | 103 kts | 208° |
| 2026-05-04 00:02 | 42.20157 | -83.34712 | 1021 ft | 129 kts | 212° |
| 2026-05-04 00:02 | 42.19337 | -83.35283 | 1844 ft | 134 kts | 210° |
| 2026-05-04 00:02 | 42.18508 | -83.35860 | 2623 ft | 136 kts | 212° |
| 2026-05-04 00:03 | 42.17538 | -83.36187 | 2809 ft | 164 kts | 182° |
| 2026-05-04 00:03 | 42.16404 | -83.35399 | 2943 ft | 205 kts | 142° |
| 2026-05-04 00:03 | 42.15571 | -83.33686 | 3110 ft | 236 kts | 125° |
| 2026-05-04 00:03 | 42.14803 | -83.31654 | 3652 ft | 247 kts | 123° |
| 2026-05-04 00:04 | 42.14023 | -83.29550 | 3944 ft | 251 kts | 122° |
| 2026-05-04 00:04 | 42.13453 | -83.27318 | 4022 ft | 258 kts | 98° |
| 2026-05-04 00:04 | 42.13715 | -83.24919 | 4026 ft | 263 kts | 65° |
| 2026-05-04 00:04 | 42.14790 | -83.23000 | 4056 ft | 252 kts | 36° |
| 2026-05-04 00:05 | 42.16198 | -83.21629 | 4028 ft | 248 kts | 27° |
| 2026-05-04 00:05 | 42.17687 | -83.20486 | 4024 ft | 246 kts | 23° |
| 2026-05-04 00:05 | 42.19178 | -83.19420 | 4017 ft | 246 kts | 22° |
| 2026-05-04 00:05 | 42.20694 | -83.18349 | 4029 ft | 245 kts | 22° |
| 2026-05-04 00:06 | 42.22207 | -83.17279 | 3906 ft | 246 kts | 22° |
| 2026-05-04 00:06 | 42.23710 | -83.16225 | 3644 ft | 240 kts | 22° |
| 2026-05-04 00:06 | 42.25174 | -83.15202 | 3384 ft | 233 kts | 22° |
| 2026-05-04 00:06 | 42.26572 | -83.14209 | 3152 ft | 222 kts | 22° |
| 2026-05-04 00:07 | 42.27907 | -83.13249 | 2998 ft | 215 kts | 22° |
| 2026-05-04 00:07 | 42.29249 | -83.12390 | 2981 ft | 211 kts | 8° |
| 2026-05-04 00:07 | 42.30622 | -83.12464 | 2986 ft | 190 kts | 328° |
| 2026-05-04 00:07 | 42.31715 | -83.13357 | 2977 ft | 180 kts | 312° |
| 2026-05-04 00:08 | 42.32479 | -83.14596 | 2976 ft | 172 kts | 295° |
| 2026-05-04 00:08 | 42.33083 | -83.15973 | 2971 ft | 169 kts | 285° |
| 2026-05-04 00:08 | 42.33539 | -83.17448 | 2975 ft | 170 kts | 283° |
| 2026-05-04 00:08 | 42.33962 | -83.18939 | 2975 ft | 170 kts | 282° |
| 2026-05-04 00:09 | 42.34381 | -83.20433 | 2973 ft | 170 kts | 282° |
| 2026-05-04 00:09 | 42.34614 | -83.21964 | 3001 ft | 163 kts | 263° |
| 2026-05-04 00:09 | 42.34375 | -83.23422 | 3000 ft | 159 kts | 243° |
| 2026-05-04 00:09 | 42.33722 | -83.24617 | 3002 ft | 159 kts | 224° |
| 2026-05-04 00:10 | 42.32776 | -83.25418 | 2992 ft | 162 kts | 211° |
| 2026-05-04 00:10 | 42.31792 | -83.26146 | 2860 ft | 161 kts | 213° |
| 2026-05-04 00:10 | 42.30811 | -83.26873 | 2684 ft | 161 kts | 212° |
| 2026-05-04 00:10 | 42.29852 | -83.27581 | 2492 ft | 152 kts | 211° |
| 2026-05-04 00:11 | 42.28972 | -83.28231 | 2296 ft | 139 kts | 212° |
| 2026-05-04 00:11 | 42.28156 | -83.28834 | 2115 ft | 131 kts | 212° |
| 2026-05-04 00:11 | 42.27358 | -83.29425 | 1935 ft | 130 kts | 212° |
| 2026-05-04 00:11 | 42.26568 | -83.30009 | 1761 ft | 130 kts | 212° |
| 2026-05-04 00:12 | 42.25775 | -83.30597 | 1563 ft | 129 kts | 212° |
| 2026-05-04 00:12 | 42.24980 | -83.31184 | 1386 ft | 130 kts | 213° |
| 2026-05-04 00:12 | 42.24195 | -83.31762 | 1201 ft | 128 kts | 213° |
| 2026-05-04 00:12 | 42.23406 | -83.32345 | 1008 ft | 129 kts | 212° |
| 2026-05-04 00:13 | 42.22619 | -83.32925 | 836 ft | 133 kts | 213° |
| 2026-05-04 00:13 | 42.21810 | -83.33524 | 668 ft | 130 kts | 212° |
| 2026-05-04 00:13 | 42.21101 | -83.34038 | 649 ft | 104 kts | 211° |
| 2026-05-04 00:13 | 42.20651 | -83.34381 | 646 ft | 48 kts | 208° |
| 2026-05-04 00:14 | 42.20435 | -83.34540 | 647 ft | 31 kts | 209° |
| 2026-05-04 00:14 | 42.20261 | -83.34667 | 647 ft | 26 kts | 208° |
| 2026-05-04 00:14 | 42.20187 | -83.34781 | 647 ft | 14 kts | 265° |
| 2026-05-04 00:14 | 42.20184 | -83.34905 | 647 ft | 12 kts | 268° |
| 2026-05-04 00:15 | 42.20182 | -83.34975 | 647 ft | 11 kts | 267° |
| 2026-05-04 00:15 | 42.20174 | -83.35190 | 648 ft | 21 kts | 266° |
| 2026-05-04 00:15 | 42.20168 | -83.35379 | 648 ft | 20 kts | 274° |
| 2026-05-04 00:15 | 42.20171 | -83.35566 | 647 ft | 20 kts | 268° |
| 2026-05-04 00:16 | 42.20168 | -83.35691 | 648 ft | 20 kts | 269° |
| 2026-05-04 00:16 | 42.20163 | -83.35944 | 648 ft | 20 kts | 270° |
| 2026-05-04 00:16 | 42.20161 | -83.36138 | 648 ft | 21 kts | 269° |
| 2026-05-04 00:16 | 42.20183 | -83.36309 | 649 ft | 17 kts | 281° |
| 2026-05-04 00:17 | 42.20227 | -83.36406 | 650 ft | 11 kts | 348° |
| 2026-05-04 00:17 | 42.20298 | -83.36388 | 648 ft | 10 kts | 19° |
| 2026-05-04 00:17 | 42.20376 | -83.36334 | 648 ft | 15 kts | 29° |
| 2026-05-04 00:17 | 42.20470 | -83.36264 | 648 ft | 17 kts | 28° |
| 2026-05-04 00:18 | 42.20570 | -83.36190 | 648 ft | 15 kts | 28° |
| 2026-05-04 00:18 | 42.20666 | -83.36119 | 647 ft | 16 kts | 29° |
| 2026-05-04 00:18 | 42.20771 | -83.36042 | 647 ft | 18 kts | 29° |
| 2026-05-04 00:18 | 42.20870 | -83.35969 | 648 ft | 15 kts | 29° |
| 2026-05-04 00:19 | 42.20955 | -83.35906 | 647 ft | 14 kts | 28° |
| 2026-05-04 00:19 | 42.21050 | -83.35836 | 647 ft | 17 kts | 29° |
| 2026-05-04 00:19 | 42.21147 | -83.35764 | 648 ft | 14 kts | 29° |
| 2026-05-04 00:19 | 42.21223 | -83.35709 | 648 ft | 11 kts | 28° |
| 2026-05-04 00:20 | 42.21271 | -83.35674 | 649 ft | 3 kts | 29° |
| 2026-05-04 00:20 | 42.21280 | -83.35667 | 647 ft | 0 kts | 28° |
| 2026-05-04 00:22 | 42.21290 | -83.35660 | 647 ft | 4 kts | 29° |
| 2026-05-04 00:22 | 42.21329 | -83.35631 | 649 ft | 9 kts | 28° |
| 2026-05-04 00:23 | 42.21385 | -83.35590 | 649 ft | 8 kts | 28° |
| 2026-05-04 00:23 | 42.21433 | -83.35551 | 647 ft | 8 kts | 44° |
| 2026-05-04 00:23 | 42.21422 | -83.35501 | 647 ft | 5 kts | 119° |
| 2026-05-04 00:23 | 42.21410 | -83.35472 | 647 ft | 2 kts | 119° |
| 2026-05-04 00:24 | 42.21408 | -83.35469 | 647 ft | 0 kts | 119° |